Time;durP1;ratioP1;P1;durP2;ratioP2;P2;SDS_P1;SDS_P2;PMS_P1;PMS_P2;Temp;Humidity;BMP_temperature;BMP_pressure;BME280_temperature;BME280_humidity;BME280_pressure;Samples;Min_cycle;Max_cycle;Signal;HPM_P1;HPM_P2
2022/01/12 00:02:08;;;;;;;72.60;30.10;;;;;;;-145.18;100.00;47691.91;5028871;28;20087;-70
2022/01/12 00:04:34;;;;;;;66.13;26.40;;;;;;;-145.18;100.00;47703.63;5028625;28;20383;-71
2022/01/12 00:06:59;;;;;;;76.53;30.60;;;;;;;-145.18;100.00;47719.25;5028374;28;20061;-73
2022/01/12 00:09:25;;;;;;;92.60;32.73;;;;;;;-145.18;100.00;47730.97;5028457;28;20037;-73
2022/01/12 00:11:50;;;;;;;77.80;33.97;;;;;;;-145.18;100.00;47699.72;5028136;28;20127;-73
2022/01/12 00:14:16;;;;;;;71.40;29.93;;;;;;;-145.18;100.00;47707.53;5029347;28;20037;-73
2022/01/12 00:16:46;;;;;;;91.90;35.77;;;;;;;-145.18;100.00;47695.81;5028159;28;20057;-72
2022/01/12 00:19:12;;;;;;;87.43;35.10;;;;;;;-145.18;100.00;47711.44;5028550;28;20346;-72
2022/01/12 00:21:37;;;;;;;84.17;33.30;;;;;;;-145.18;100.00;47723.16;5027745;28;20366;-72
2022/01/12 00:24:03;;;;;;;86.30;34.20;;;;;;;-145.18;100.00;47697.75;5028286;28;20057;-73
2022/01/12 00:34:25;;;;;;;82.13;31.13;;;;;;;-145.18;100.00;47709.47;5028392;28;20278;-70
2022/01/12 00:36:50;;;;;;;96.83;36.70;;;;;;;-145.18;100.00;47684.06;5027974;28;20632;-70
2022/01/12 00:39:16;;;;;;;90.70;34.40;;;;;;;-145.18;100.00;47693.84;5028223;28;20034;-70
2022/01/12 00:41:41;;;;;;;80.47;33.13;;;;;;;-145.18;100.00;47711.44;5027625;28;20041;-70
2022/01/12 00:44:10;;;;;;;82.47;33.03;;;;;;;-145.18;100.00;47680.16;5027830;28;20037;-70
2022/01/12 00:46:37;;;;;;;87.00;32.70;;;;;;;-145.18;100.00;47697.75;5027518;28;20041;-70
2022/01/12 00:49:03;;;;;;;65.87;29.47;;;;;;;-145.18;100.00;47730.97;5028162;28;20274;-70
2022/01/12 00:51:33;;;;;;;60.80;28.37;;;;;;;-145.18;100.00;47709.47;5027442;28;20412;-70
2022/01/12 00:54:01;;;;;;;60.30;27.83;;;;;;;-145.18;100.00;47689.94;5027565;28;20278;-70
2022/01/12 00:56:27;;;;;;;60.73;26.37;;;;;;;-145.18;100.00;47699.72;5026003;28;20275;-70
2022/01/12 00:58:53;;;;;;;63.67;27.37;;;;;;;-145.18;100.00;47707.53;5027942;28;20302;-70
2022/01/12 01:01:20;;;;;;;62.87;26.63;;;;;;;-145.18;100.00;47701.66;5027594;28;20049;-73
2022/01/12 01:03:49;;;;;;;71.07;29.67;;;;;;;-145.18;100.00;47695.81;5027098;28;20041;-73
2022/01/12 01:06:15;;;;;;;66.67;27.90;;;;;;;-145.18;100.00;47707.53;5027371;28;20858;-73
2022/01/12 01:08:41;;;;;;;60.87;27.33;;;;;;;-145.18;100.00;47680.16;5027264;28;20313;-73
2022/01/12 01:11:06;;;;;;;65.93;28.27;;;;;;;-145.18;100.00;47678.22;5027354;28;20298;-70
2022/01/12 01:13:35;;;;;;;55.87;28.53;;;;;;;-145.18;100.00;47691.91;5027272;28;20109;-70
2022/01/12 01:26:48;;;;;;;;;;;;;;;-145.18;100.00;47656.72;5027528;28;20302;-72
2022/01/12 01:29:13;;;;;;;66.10;28.83;;;;;;;-145.18;100.00;47664.53;5027057;28;19960;-72
2022/01/12 01:31:40;;;;;;;70.23;29.77;;;;;;;-145.18;100.00;47658.69;5026576;28;20120;-72
2022/01/12 01:34:10;;;;;;;70.47;31.40;;;;;;;-145.18;100.00;47658.69;5026490;28;20041;-72
2022/01/12 01:36:50;;;;;;;69.77;30.90;;;;;;;-145.18;100.00;47652.81;5026782;28;20271;-72
2022/01/12 01:39:20;;;;;;;67.57;31.47;;;;;;;-145.18;100.00;47668.44;5026902;28;20271;-72
2022/01/12 01:41:52;;;;;;;69.43;31.93;;;;;;;-145.18;100.00;47646.97;5026191;28;20275;-69
2022/01/12 01:54:56;;;;;;;72.43;28.23;;;;;;;-145.18;100.00;47646.97;5026694;28;20659;-69
2022/01/12 01:57:24;;;;;;;66.80;28.87;;;;;;;-145.18;100.00;47652.81;5026306;28;20279;-69
2022/01/12 01:59:50;;;;;;;65.50;28.10;;;;;;;-145.18;100.00;47678.22;5026599;28;20450;-69
2022/01/12 02:02:15;;;;;;;68.93;30.07;;;;;;;-145.18;100.00;47660.63;5026791;28;20274;-69
2022/01/12 02:04:41;;;;;;;61.43;28.07;;;;;;;-145.18;100.00;47652.81;5026348;28;20616;-70
2022/01/12 02:07:06;;;;;;;68.83;28.53;;;;;;;-145.18;100.00;47686.03;5025167;28;20049;-70
2022/01/12 02:09:34;;;;;;;70.00;30.27;;;;;;;-145.18;100.00;47676.25;5027057;28;20060;-72
2022/01/12 02:12:00;;;;;;;65.40;28.10;;;;;;;-145.18;100.00;47639.13;5027432;28;20041;-72
2022/01/12 02:14:26;;;;;;;66.83;29.33;;;;;;;-145.18;100.00;47676.25;5030314;28;20298;-69
2022/01/12 02:17:00;;;;;;;57.23;27.13;;;;;;;-145.18;100.00;47658.69;5029120;28;20043;-69
2022/01/12 02:35:49;;;;;;;69.07;32.43;;;;;;;-145.18;100.00;47672.34;5029843;28;20317;-71
2022/01/12 02:40:53;;;;;;;58.57;26.83;;;;;;;-145.18;100.00;47676.25;5029932;28;20263;-69
2022/01/12 02:53:38;;;;;;;55.27;25.60;;;;;;;-145.18;100.00;47686.03;5029115;28;20453;-69
2022/01/12 02:54:17;;;;;;;55.20;26.53;;;;;;;-145.18;100.00;47674.31;5030120;28;20282;-68
2022/01/12 02:56:43;;;;;;;55.43;26.60;;;;;;;-145.18;100.00;47680.16;5029438;28;20333;-68
2022/01/12 02:59:09;;;;;;;60.10;27.80;;;;;;;-145.18;100.00;47633.28;5029855;28;20052;-69
2022/01/12 03:02:38;;;;;;;56.60;27.33;;;;;;;-145.18;100.00;47643.03;5029083;28;20453;-69
2022/01/12 03:04:29;;;;;;;60.17;28.07;;;;;;;-145.18;100.00;47645.00;5016024;28;20259;-69
2022/01/12 03:07:04;;;;;;;62.87;28.00;;;;;;;-145.18;100.00;47627.41;5029876;28;20278;-69
2022/01/12 03:09:29;;;;;;;60.93;29.27;;;;;;;-145.18;100.00;47629.38;5029341;28;20045;-70
2022/01/12 03:11:54;;;;;;;61.33;28.53;;;;;;;-145.18;100.00;47621.56;5029472;28;20715;-69
2022/01/12 03:14:20;;;;;;;62.63;30.00;;;;;;;-145.18;100.00;47617.66;5029474;28;20697;-69
2022/01/12 03:16:45;;;;;;;60.53;28.17;;;;;;;-145.18;100.00;47602.00;5029437;28;20075;-70
2022/01/12 03:19:11;;;;;;;63.53;28.33;;;;;;;-145.18;100.00;47596.16;5028928;28;20060;-70
2022/01/12 03:21:36;;;;;;;61.07;28.63;;;;;;;-145.18;100.00;47619.59;5027976;28;20544;-69
2022/01/12 03:24:03;;;;;;;56.83;26.97;;;;;;;-145.18;100.00;47646.97;5028358;28;20045;-70
2022/01/12 03:26:30;;;;;;;67.53;29.33;;;;;;;-145.18;100.00;47594.19;5028920;28;20582;-69
2022/01/12 03:28:57;;;;;;;64.60;29.03;;;;;;;-145.18;100.00;47613.75;5029411;28;20772;-69
2022/01/12 03:31:29;;;;;;;71.43;33.07;;;;;;;-145.18;100.00;47596.16;5029124;28;20771;-69
2022/01/12 03:39:10;;;;;;;62.07;29.90;;;;;;;-145.18;100.00;47568.81;5029233;28;20744;-69
2022/01/12 03:41:36;;;;;;;61.57;28.27;;;;;;;-145.18;100.00;47609.84;5028693;28;20247;-69
2022/01/12 03:44:04;;;;;;;59.07;28.03;;;;;;;-145.18;100.00;47570.75;5028825;28;20279;-69
2022/01/12 03:46:35;;;;;;;63.83;28.40;;;;;;;-145.18;100.00;47602.00;5027209;28;20624;-69
2022/01/12 03:49:00;;;;;;;65.60;28.77;;;;;;;-145.18;100.00;47559.03;5028910;28;20283;-69
2022/01/12 03:51:25;;;;;;;60.53;27.23;;;;;;;-145.18;100.00;47531.69;5028541;28;20289;-70
2022/01/12 03:53:51;;;;;;;60.90;27.90;;;;;;;-145.18;100.00;47574.66;5028717;28;20041;-69
2022/01/12 03:56:17;;;;;;;60.53;27.50;;;;;;;-145.18;100.00;47588.34;5029426;28;20083;-69
2022/01/12 03:58:42;;;;;;;64.03;28.37;;;;;;;-145.18;100.00;47609.84;5028126;28;20141;-69
2022/01/12 04:01:08;;;;;;;61.23;28.23;;;;;;;-145.18;100.00;47588.34;5028293;28;20111;-69
2022/01/12 04:03:39;;;;;;;66.67;29.30;;;;;;;-145.18;100.00;47605.94;5028534;28;20048;-69
2022/01/12 04:08:48;;;;;;;67.93;30.40;;;;;;;-145.18;100.00;47551.22;5027222;28;20362;-69
2022/01/12 04:11:14;;;;;;;69.33;29.13;;;;;;;-145.18;100.00;47572.72;5028329;28;20814;-69
2022/01/12 04:13:41;;;;;;;64.50;29.23;;;;;;;-145.18;100.00;47537.53;5028371;28;20566;-69
2022/01/12 04:16:07;;;;;;;69.57;30.60;;;;;;;-145.18;100.00;47580.53;5027630;28;20046;-69
2022/01/12 04:18:34;;;;;;;66.50;30.30;;;;;;;-145.18;100.00;47578.56;5028023;28;20290;-69
2022/01/12 04:21:03;;;;;;;66.27;31.13;;;;;;;-145.18;100.00;47564.91;5028120;28;20041;-69
2022/01/12 04:23:29;;;;;;;66.23;29.60;;;;;;;-145.18;100.00;47582.47;5028584;28;20278;-69
2022/01/12 04:25:58;;;;;;;63.33;29.90;;;;;;;-145.18;100.00;47574.66;5028418;28;20699;-69
2022/01/12 04:28:25;;;;;;;69.97;32.43;;;;;;;-145.18;100.00;47574.66;5028347;28;20275;-69
2022/01/12 04:30:53;;;;;;;71.63;34.83;;;;;;;-145.18;100.00;47596.16;5026833;28;20267;-69
2022/01/12 04:33:19;;;;;;;69.87;33.97;;;;;;;-145.18;100.00;47629.38;5028363;28;20690;-69
2022/01/12 04:35:52;;;;;;;76.20;31.17;;;;;;;-145.18;100.00;47572.72;5025791;28;20306;-69
2022/01/12 04:38:19;;;;;;;65.47;30.53;;;;;;;-145.18;100.00;47582.47;5028443;28;20274;-69
2022/01/12 04:40:46;;;;;;;72.07;30.43;;;;;;;-145.18;100.00;47588.34;5027597;28;20317;-69
2022/01/12 04:43:12;;;;;;;58.60;29.10;;;;;;;-145.18;100.00;47557.06;5028002;28;20262;-69
2022/01/12 04:50:50;;;;;;;62.87;29.63;;;;;;;-145.18;100.00;47598.09;5027132;28;20316;-69
2022/01/12 04:53:17;;;;;;;72.57;30.87;;;;;;;-145.18;100.00;47603.97;5027880;28;20275;-69
2022/01/12 04:55:43;;;;;;;70.60;32.30;;;;;;;-145.18;100.00;47598.09;5027072;28;20640;-69
2022/01/12 04:58:09;;;;;;;73.57;32.50;;;;;;;-145.18;100.00;47607.88;5027868;28;20266;-70
2022/01/12 05:00:36;;;;;;;67.03;31.23;;;;;;;-145.18;100.00;47566.84;5028125;28;20037;-69
2022/01/12 05:13:43;;;;;;;74.72;31.05;;;;;;;-145.18;100.00;47615.69;5027474;28;20155;-69
2022/01/12 05:16:12;;;;;;;72.90;31.90;;;;;;;-145.18;100.00;47596.16;5027147;28;20041;-70
2022/01/12 05:18:40;;;;;;;78.53;30.97;;;;;;;-145.18;100.00;47576.63;5027289;28;20362;-69
2022/01/12 05:21:06;;;;;;;77.13;30.97;;;;;;;-145.18;100.00;47574.66;5026930;28;20274;-69
2022/01/12 05:23:32;;;;;;;69.93;31.17;;;;;;;-145.18;100.00;47553.16;5026720;28;20329;-69
2022/01/12 05:25:58;;;;;;;73.20;31.33;;;;;;;-145.18;100.00;47559.03;5027147;28;20037;-69
2022/01/12 05:28:25;;;;;;;76.30;31.10;;;;;;;-145.18;100.00;47531.69;5023811;28;20298;-70
2022/01/12 05:30:51;;;;;;;79.50;32.63;;;;;;;-145.18;100.00;47508.22;5023866;28;20354;-69
2022/01/12 05:33:18;;;;;;;81.17;33.53;;;;;;;-145.18;100.00;47537.53;5026083;28;20766;-69
2022/01/12 05:35:44;;;;;;;83.57;34.73;;;;;;;-145.18;100.00;47547.31;5026569;28;20271;-69
2022/01/12 05:38:12;;;;;;;78.63;33.83;;;;;;;-145.18;100.00;47572.72;5027132;28;20277;-70
2022/01/12 05:40:45;;;;;;;83.17;32.70;;;;;;;-145.18;100.00;47547.31;5026604;28;20041;-70
2022/01/12 05:43:10;;;;;;;73.87;32.80;;;;;;;-145.18;100.00;47551.22;5027039;28;20263;-70
2022/01/12 05:45:39;;;;;;;80.00;33.30;;;;;;;-145.18;100.00;47539.50;5026745;28;20835;-69
2022/01/12 05:50:38;;;;;;;79.97;33.37;;;;;;;-145.18;100.00;47568.81;5026280;28;20663;-69
2022/01/12 05:53:04;;;;;;;85.53;32.43;;;;;;;-145.18;100.00;47551.22;5024111;28;20287;-70
2022/01/12 05:55:30;;;;;;;98.60;34.10;;;;;;;-145.18;100.00;47555.13;5017208;28;20294;-69
2022/01/12 05:57:56;;;;;;;107.30;32.60;;;;;;;-145.18;100.00;47498.47;5018000;28;20045;-72
2022/01/12 06:00:24;;;;;;;109.37;33.90;;;;;;;-145.18;100.00;47449.63;5016214;28;20283;-70
2022/01/12 06:02:49;;;;;;;89.30;34.10;;;;;;;-145.18;100.00;47391.00;5021917;28;20290;-70
2022/01/12 06:05:18;;;;;;;110.03;37.03;;;;;;;-145.18;100.00;47320.69;5011901;28;20334;-70
2022/01/12 06:07:44;;;;;;;124.00;37.43;;;;;;;-145.18;100.00;47271.84;5006428;28;20034;-70
2022/01/12 06:10:10;;;;;;;100.93;35.13;;;;;;;-145.18;100.00;47271.84;5006553;28;20306;-70
2022/01/12 06:12:37;;;;;;;127.43;40.03;;;;;;;-145.18;100.00;47287.47;5005696;28;20306;-71
2022/01/12 06:15:02;;;;;;;122.73;40.97;;;;;;;-145.18;100.00;47256.22;5006606;28;20283;-70
2022/01/12 06:17:28;;;;;;;94.07;35.17;;;;;;;-145.18;100.00;47207.38;5006418;28;20602;-70
2022/01/12 06:19:53;;;;;;;148.17;36.13;;;;;;;-145.18;100.00;47211.28;5006869;28;20038;-69
2022/01/12 06:22:19;;;;;;;145.13;36.70;;;;;;;-145.18;100.00;47207.38;5006657;28;20073;-70
2022/01/12 06:24:44;;;;;;;157.43;37.30;;;;;;;-145.18;100.00;47197.59;5005063;28;20117;-70
2022/01/12 06:27:14;;;;;;;114.27;36.87;;;;;;;-145.18;100.00;47164.38;5006906;28;20492;-71
2022/01/12 06:30:04;;;;;;;226.73;39.23;;;;;;;-145.18;100.00;47170.25;5006619;28;20038;-71
2022/01/12 06:32:32;;;;;;;149.40;34.30;;;;;;;-145.18;100.00;47137.03;5024452;28;20274;-70
2022/01/12 06:34:57;;;;;;;132.63;36.00;;;;;;;-145.18;100.00;47160.47;5026649;28;20271;-70
2022/01/12 06:37:23;;;;;;;121.20;40.33;;;;;;;-145.18;100.00;47133.13;5026057;28;20275;-73
2022/01/12 06:39:49;;;;;;;133.03;38.83;;;;;;;-145.18;100.00;47137.03;5025865;28;20041;-70
2022/01/12 06:42:15;;;;;;;135.50;37.57;;;;;;;-145.18;100.00;47125.31;5025782;28;20064;-71
2022/01/12 06:44:40;;;;;;;121.57;36.23;;;;;;;-145.18;100.00;47105.78;5027147;28;20768;-70
2022/01/12 06:47:06;;;;;;;132.73;36.37;;;;;;;-145.18;100.00;47094.06;5026032;28;20041;-70
2022/01/12 06:49:32;;;;;;;160.90;38.07;;;;;;;-145.18;100.00;47111.66;5024896;28;20517;-70
2022/01/12 06:52:00;;;;;;;115.67;36.90;;;;;;;-145.18;100.00;47094.06;5025481;28;20038;-70
2022/01/12 06:54:25;;;;;;;178.23;38.53;;;;;;;-145.18;100.00;47101.88;5006540;28;20514;-70
2022/01/12 06:56:51;;;;;;;109.53;36.97;;;;;;;-145.18;100.00;47039.34;5005945;28;20271;-71
2022/01/12 06:59:16;;;;;;;125.87;37.70;;;;;;;-145.18;100.00;47070.63;5008399;28;20045;-70
2022/01/12 07:01:42;;;;;;;118.57;37.20;;;;;;;-145.18;100.00;47056.94;5018161;28;20689;-70
2022/01/12 07:04:07;;;;;;;114.63;34.30;;;;;;;-145.18;100.00;47078.44;5017896;28;20506;-70
2022/01/12 07:06:34;;;;;;;99.03;34.03;;;;;;;-145.18;100.00;47043.28;5009129;28;20052;-70
2022/01/12 07:09:00;;;;;;;131.00;36.77;;;;;;;-145.18;100.00;47023.72;5009669;28;20074;-70
2022/01/12 07:11:25;;;;;;;118.50;37.13;;;;;;;-145.18;100.00;47039.34;5021791;28;20291;-71
2022/01/12 07:13:50;;;;;;;100.67;35.13;;;;;;;-145.18;100.00;47013.97;5028499;28;20679;-70
2022/01/12 07:16:16;;;;;;;109.20;34.23;;;;;;;-145.18;100.00;47017.88;5029693;28;20091;-70
2022/01/12 07:18:41;;;;;;;114.10;35.77;;;;;;;-145.18;100.00;47023.72;5029337;28;20046;-71
2022/01/12 07:21:06;;;;;;;107.10;35.30;;;;;;;-145.18;100.00;46992.47;5029065;28;20676;-70
2022/01/12 07:23:32;;;;;;;105.17;33.90;;;;;;;-145.18;100.00;47013.97;5029124;28;20037;-70
2022/01/12 07:25:57;;;;;;;96.40;33.67;;;;;;;-145.18;100.00;47012.00;5029210;28;20116;-71
2022/01/12 07:28:23;;;;;;;84.73;29.43;;;;;;;-145.18;100.00;47012.00;5029051;28;20041;-71
2022/01/12 07:30:49;;;;;;;89.77;29.63;;;;;;;-145.18;100.00;47033.50;5028967;28;20045;-70
2022/01/12 07:33:15;;;;;;;93.73;29.43;;;;;;;-145.18;100.00;47045.22;5027774;28;20056;-70
2022/01/12 07:35:41;;;;;;;74.10;24.80;;;;;;;-145.18;100.00;47066.72;5028931;28;20306;-70
2022/01/12 07:38:07;;;;;;;84.23;25.17;;;;;;;-145.18;100.00;47041.31;5029019;28;20501;-70
2022/01/12 07:40:35;;;;;;;89.27;25.77;;;;;;;-145.18;100.00;47068.66;5028749;28;20327;-70
2022/01/12 07:43:04;;;;;;;87.93;26.67;;;;;;;-145.18;100.00;47060.84;5029039;28;20052;-71
2022/01/12 07:45:30;;;;;;;86.33;24.40;;;;;;;-145.18;100.00;47055.00;5028796;28;20274;-71
2022/01/12 07:47:55;;;;;;;73.00;23.13;;;;;;;-145.18;100.00;47055.00;5029477;28;20273;-70
2022/01/12 07:50:21;;;;;;;83.00;22.93;;;;;;;-145.18;100.00;47002.25;5028778;28;20060;-70
2022/01/12 07:52:46;;;;;;;85.23;24.43;;;;;;;-145.18;100.00;47037.41;5028749;28;20426;-71
2022/01/12 07:55:12;;;;;;;80.47;22.27;;;;;;;-145.18;100.00;47074.53;5029018;28;20049;-70
2022/01/12 07:57:38;;;;;;;77.20;22.43;;;;;;;-145.18;100.00;47078.44;5028263;28;20570;-71
2022/01/12 08:00:07;;;;;;;83.37;22.73;;;;;;;-145.18;100.00;47125.31;5028830;28;20051;-71
2022/01/12 08:02:32;;;;;;;95.00;24.30;;;;;;;-145.18;100.00;47064.75;5028294;28;20321;-71
2022/01/12 08:04:58;;;;;;;88.10;23.57;;;;;;;-145.18;100.00;47094.06;5029310;28;20294;-70
2022/01/12 08:07:23;;;;;;;83.87;23.87;;;;;;;-145.18;100.00;47047.19;5028386;28;20124;-70
2022/01/12 08:09:49;;;;;;;84.93;22.93;;;;;;;-145.18;100.00;47066.72;5027816;28;20044;-71
2022/01/12 08:12:14;;;;;;;79.27;24.93;;;;;;;-145.18;100.00;47049.13;5028032;28;20077;-70
2022/01/12 08:14:39;;;;;;;76.80;22.53;;;;;;;-145.18;100.00;47076.47;5028359;28;20133;-71
2022/01/12 08:17:05;;;;;;;83.87;24.03;;;;;;;-145.18;100.00;47066.72;5028180;28;20041;-70
2022/01/12 08:19:34;;;;;;;92.83;25.03;;;;;;;-145.18;100.00;47101.88;5028931;28;20051;-70
2022/01/12 08:22:00;;;;;;;84.87;24.50;;;;;;;-145.18;100.00;47058.91;5028353;28;20771;-70
2022/01/12 08:24:26;;;;;;;92.97;24.97;;;;;;;-145.18;100.00;47094.06;5028444;28;20350;-70
2022/01/12 08:26:55;;;;;;;78.97;23.63;;;;;;;-145.18;100.00;47101.88;5027962;28;20033;-70
2022/01/12 08:29:20;;;;;;;85.70;23.93;;;;;;;-145.18;100.00;47123.38;5028369;28;20774;-70
2022/01/12 08:31:45;;;;;;;75.43;22.70;;;;;;;-145.18;100.00;47180.03;5027341;28;20502;-70
2022/01/12 08:34:12;;;;;;;72.90;21.43;;;;;;;-145.18;100.00;47170.25;5027103;28;20069;-70
2022/01/12 08:36:39;;;;;;;78.80;22.00;;;;;;;-145.18;100.00;47197.59;5028236;28;20049;-70
2022/01/12 08:39:08;;;;;;;86.47;23.93;;;;;;;-145.18;100.00;47199.56;5028121;28;20302;-70
2022/01/12 08:41:34;;;;;;;74.50;23.77;;;;;;;-145.18;100.00;47219.09;5027427;28;20750;-70
2022/01/12 08:43:59;;;;;;;80.20;22.97;;;;;;;-145.18;100.00;47205.41;5027910;28;20429;-70
2022/01/12 08:46:25;;;;;;;70.23;22.43;;;;;;;-145.18;100.00;47191.75;5027368;28;20764;-70
2022/01/12 08:48:50;;;;;;;158.83;49.33;;;;;;;-145.18;100.00;47219.09;5027787;28;20037;-70
2022/01/12 08:51:16;;;;;;;99.37;27.70;;;;;;;-145.18;100.00;47287.47;5027215;28;20042;-71
2022/01/12 08:53:41;;;;;;;172.73;58.37;;;;;;;-145.18;100.00;47355.84;5027849;28;20111;-70
2022/01/12 08:56:07;;;;;;;108.40;35.17;;;;;;;-145.18;100.00;47486.75;5027710;28;20502;-70
2022/01/12 08:58:33;;;;;;;65.93;21.27;;;;;;;-145.18;100.00;47473.06;5027348;28;20144;-71
2022/01/12 09:01:03;;;;;;;72.40;20.87;;;;;;;-145.18;100.00;47518.00;5027994;28;20298;-71
2022/01/12 09:03:28;;;;;;;79.07;22.50;;;;;;;-145.18;100.00;47529.72;5026826;28;20048;-71
2022/01/12 09:05:54;;;;;;;75.30;21.43;;;;;;;-145.18;100.00;47535.59;5027592;28;20267;-71
2022/01/12 09:08:19;;;;;;;74.53;20.87;;;;;;;-145.18;100.00;47519.97;5025969;28;20454;-71
2022/01/12 09:10:45;;;;;;;74.27;22.57;;;;;;;-145.18;100.00;47521.91;5027850;28;20045;-70
2022/01/12 09:13:10;;;;;;;85.03;25.27;;;;;;;-145.18;100.00;47506.28;5027177;28;20089;-70
2022/01/12 09:15:36;;;;;;;85.03;25.53;;;;;;;-145.18;100.00;47494.56;5026006;28;20551;-71
2022/01/12 09:18:01;;;;;;;69.13;22.47;;;;;;;-145.18;100.00;47508.22;5027009;28;20045;-71
2022/01/12 09:20:28;;;;;;;78.63;26.77;;;;;;;-145.18;100.00;47498.47;5027415;28;20075;-71
2022/01/12 09:22:54;;;;;;;63.90;20.17;;;;;;;-145.18;100.00;47602.00;5018949;28;20049;-71
2022/01/12 09:25:20;;;;;;;62.10;18.10;;;;;;;-145.18;100.00;47627.41;5027602;28;20271;-70
2022/01/12 09:27:45;;;;;;;56.87;17.47;;;;;;;-145.18;100.00;47621.56;5026407;28;20041;-70
2022/01/12 09:30:12;;;;;;;72.13;18.90;;;;;;;-145.18;100.00;47615.69;5026979;28;20037;-70
2022/01/12 09:32:38;;;;;;;61.87;18.27;;;;;;;-145.18;100.00;47594.19;5026598;28;20103;-70
2022/01/12 09:35:04;;;;;;;67.03;18.70;;;;;;;-145.18;100.00;47541.44;5027247;28;20263;-71
2022/01/12 09:37:30;;;;;;;59.23;19.20;;;;;;;-145.18;100.00;47586.38;5025899;28;20033;-71
2022/01/12 09:39:55;;;;;;;56.60;18.43;;;;;;;-145.18;100.00;47566.84;5027079;28;20625;-72
2022/01/12 09:42:21;;;;;;;56.70;19.47;;;;;;;-145.18;100.00;47566.84;5027324;28;20052;-70
2022/01/12 09:44:47;;;;;;;69.23;20.67;;;;;;;-145.18;100.00;47584.44;5026696;28;20132;-71
2022/01/12 09:47:14;;;;;;;68.77;19.00;;;;;;;-145.18;100.00;47613.75;5026788;28;20534;-71
2022/01/12 09:49:45;;;;;;;73.33;21.00;;;;;;;-145.18;100.00;47609.84;5026861;28;20370;-71
2022/01/12 09:52:12;;;;;;;58.50;18.37;;;;;;;-145.18;100.00;47660.63;5026446;28;20287;-71
2022/01/12 09:54:38;;;;;;;56.30;16.63;;;;;;;-145.18;100.00;47652.81;5026896;28;20344;-71
2022/01/12 09:57:04;;;;;;;57.47;15.03;;;;;;;-145.18;100.00;47652.81;5026438;28;20755;-71
2022/01/12 09:59:30;;;;;;;54.33;14.97;;;;;;;-145.18;100.00;47664.53;5026672;28;20030;-72
2022/01/12 10:01:56;;;;;;;48.30;15.40;;;;;;;-145.18;100.00;47650.88;5025757;28;20278;-71
2022/01/12 10:04:28;;;;;;;51.50;15.67;;;;;;;-145.18;100.00;47633.28;5026723;28;20283;-71
2022/01/12 10:06:57;;;;;;;58.00;16.10;;;;;;;-145.18;100.00;47637.19;5007874;28;20410;-70
2022/01/12 10:09:34;;;;;;;53.63;16.13;;;;;;;-145.18;100.00;47633.28;5007277;28;20374;-71
2022/01/12 10:12:04;;;;;;;49.43;14.30;;;;;;;-145.18;100.00;47645.00;5011774;28;20639;-70
2022/01/12 10:14:44;;;;;;;50.27;15.37;;;;;;;-145.18;100.00;47648.91;5023890;28;20354;-70
2022/01/12 10:17:11;;;;;;;48.80;15.10;;;;;;;-145.18;100.00;47637.19;5026363;28;20274;-71
2022/01/12 10:19:36;;;;;;;46.77;14.47;;;;;;;-145.18;100.00;47629.38;5026514;28;20279;-71
2022/01/12 10:22:07;;;;;;;57.30;16.13;;;;;;;-145.18;100.00;47633.28;5025740;28;20324;-71
2022/01/12 10:24:37;;;;;;;44.73;15.47;;;;;;;-145.18;100.00;47641.09;5026044;28;20809;-71
2022/01/12 10:27:11;;;;;;;55.90;15.57;;;;;;;-145.18;100.00;47635.22;5026337;28;20263;-71
2022/01/12 10:29:36;;;;;;;55.00;15.67;;;;;;;-145.18;100.00;47617.66;5026303;28;20282;-71
2022/01/12 10:32:04;;;;;;;52.87;16.40;;;;;;;-145.18;100.00;47605.94;5026175;28;20282;-71
2022/01/12 10:34:43;;;;;;;51.53;16.43;;;;;;;-145.18;100.00;47635.22;5029139;28;20040;-70
2022/01/12 10:37:13;;;;;;;41.90;12.03;;;;;;;-145.18;100.00;47617.66;5010382;28;20337;-71
2022/01/12 10:39:44;;;;;;;39.67;13.27;;;;;;;-145.18;100.00;47607.88;5016012;28;20304;-71
2022/01/12 10:42:13;;;;;;;44.53;13.70;;;;;;;-145.18;100.00;47609.84;5029509;28;20287;-71
2022/01/12 10:44:40;;;;;;;37.93;12.53;;;;;;;-145.18;100.00;47615.69;5029634;28;20767;-71
2022/01/12 10:47:07;;;;;;;48.50;13.33;;;;;;;-145.18;100.00;47611.78;5028793;28;20279;-71
2022/01/12 10:49:36;;;;;;;46.30;14.53;;;;;;;-145.18;100.00;47611.78;5029710;28;20282;-71
2022/01/12 10:52:02;;;;;;;42.33;14.43;;;;;;;-145.18;100.00;47609.84;5028828;28;20644;-71
2022/01/12 10:54:27;;;;;;;46.07;14.90;;;;;;;-145.18;100.00;47574.66;5030511;28;20263;-71
2022/01/12 10:56:53;;;;;;;46.07;14.80;;;;;;;-145.18;100.00;47586.38;5028766;28;20760;-71
2022/01/12 10:59:21;;;;;;;43.30;13.93;;;;;;;-145.18;100.00;47590.28;5029474;28;20061;-71
2022/01/12 11:01:47;;;;;;;43.40;14.30;;;;;;;-145.18;100.00;47578.56;5029453;28;20030;-70
2022/01/12 11:04:13;;;;;;;42.23;13.33;;;;;;;-145.18;100.00;47576.63;5029635;28;20274;-70
2022/01/12 11:06:39;;;;;;;46.40;13.67;;;;;;;-145.18;100.00;47582.47;5029187;28;20700;-70
2022/01/12 11:09:05;;;;;;;45.63;14.00;;;;;;;-145.18;100.00;47555.13;5029611;28;20045;-71
2022/01/12 11:11:31;;;;;;;44.07;11.87;;;;;;;-145.18;100.00;47590.28;5029993;28;20030;-73
2022/01/12 11:13:57;;;;;;;42.20;12.33;;;;;;;-145.18;100.00;47598.09;5029623;28;20320;-70
2022/01/12 11:16:25;;;;;;;42.40;13.10;;;;;;;-145.18;100.00;47611.78;5029759;28;20038;-71
2022/01/12 11:18:52;;;;;;;32.13;10.10;;;;;;;-145.18;100.00;47625.47;5028999;28;20279;-71
2022/01/12 11:21:20;;;;;;;57.20;19.40;;;;;;;-145.18;100.00;47611.78;5029635;28;20798;-71
2022/01/12 11:23:47;;;;;;;56.73;19.67;;;;;;;-145.18;100.00;47615.69;5028901;28;20285;-71
2022/01/12 11:26:23;;;;;;;43.83;14.13;;;;;;;-145.18;100.00;47600.06;5026083;28;20421;-71
2022/01/12 11:28:51;;;;;;;45.87;14.93;;;;;;;-145.18;100.00;47570.75;5028322;28;21143;-71
2022/01/12 11:31:23;;;;;;;43.13;12.43;;;;;;;-145.18;100.00;47572.72;5028021;28;20369;-72
2022/01/12 11:33:48;;;;;;;44.03;13.20;;;;;;;-145.18;100.00;47553.16;5028454;28;20294;-71
2022/01/12 11:36:34;;;;;;;43.40;13.10;;;;;;;-145.18;100.00;47568.81;5029151;28;20314;-72
2022/01/12 11:39:08;;;;;;;40.95;12.40;;;;;;;-145.18;100.00;47566.84;5028504;28;20163;-71
2022/01/12 11:41:39;;;;;;;34.07;11.87;;;;;;;-145.18;100.00;47533.63;5028960;28;20406;-71
2022/01/12 11:44:22;;;;;;;35.87;12.60;;;;;;;-145.18;100.00;47549.25;5028237;28;20278;-71
2022/01/12 11:46:57;;;;;;;36.80;11.73;;;;;;;-145.18;100.00;47576.63;5007203;28;20332;-71
2022/01/12 11:49:31;;;;;;;29.85;12.05;;;;;;;-145.18;100.00;47557.06;5007792;28;20275;-72
2022/01/12 11:51:59;;;;;;;40.00;13.43;;;;;;;-145.18;100.00;47557.06;5008170;28;20042;-71
2022/01/12 11:54:33;;;;;;;38.07;13.40;;;;;;;-145.18;100.00;47541.44;5008321;28;20267;-71
2022/01/12 11:57:05;;;;;;;37.00;12.67;;;;;;;-145.18;100.00;47545.34;5009085;28;20287;-71
2022/01/12 11:59:49;;;;;;;44.43;12.00;;;;;;;-145.18;100.00;47547.31;5008752;28;20359;-71
2022/01/12 12:02:15;;;;;;;28.17;10.90;;;;;;;-145.18;100.00;47535.59;5008530;28;20318;-71
2022/01/12 12:04:55;;;;;;;45.53;12.60;;;;;;;-145.18;100.00;47559.03;5008645;28;20275;-72
2022/01/12 12:07:22;;;;;;;34.03;12.30;;;;;;;-145.18;100.00;47543.41;5022042;28;20273;-71
2022/01/12 12:09:53;;;;;;;35.63;12.83;;;;;;;-145.18;100.00;47543.41;5028674;28;20329;-71
2022/01/12 12:12:20;;;;;;;31.17;11.73;;;;;;;-145.18;100.00;47553.16;5026971;28;20270;-72
2022/01/12 12:14:48;;;;;;;40.27;11.63;;;;;;;-145.18;100.00;47543.41;5027430;28;20358;-71
2022/01/12 12:17:15;;;;;;;34.53;11.40;;;;;;;-145.18;100.00;47518.00;5026765;28;20315;-72
2022/01/12 12:19:41;;;;;;;39.27;11.17;;;;;;;-145.18;100.00;47527.78;5027161;28;20364;-71